createdAt,value
2018-05-04T00:02:06.167Z,3.03
2018-05-04T00:04:32.529Z,3.20
2018-05-04T00:06:58.805Z,2.93
2018-05-04T00:09:25.122Z,3.03
2018-05-04T00:11:51.435Z,3.27
2018-05-04T00:14:17.740Z,3.27
2018-05-04T00:16:44.120Z,3.13
2018-05-04T00:19:10.584Z,3.63
2018-05-04T00:21:37.621Z,3.90
2018-05-04T00:24:04.661Z,3.30
2018-05-04T00:26:31.836Z,3.37
2018-05-04T00:28:58.254Z,3.50
2018-05-04T00:31:25.566Z,3.70
2018-05-04T00:33:51.863Z,3.17
2018-05-04T00:36:18.314Z,3.00
2018-05-04T00:38:44.634Z,2.33
2018-05-04T00:41:11.741Z,3.00
2018-05-04T00:43:38.876Z,3.50
2018-05-04T00:46:06.048Z,3.23
2018-05-04T00:48:32.380Z,3.67
2018-05-04T00:50:58.791Z,3.33
2018-05-04T00:53:25.922Z,3.00
2018-05-04T00:55:52.374Z,3.33
2018-05-04T00:58:18.683Z,4.03
2018-05-04T01:00:44.988Z,3.40
2018-05-04T01:03:11.432Z,3.60
2018-05-04T01:05:37.694Z,3.37
2018-05-04T01:08:04.020Z,2.20
2018-05-04T01:10:30.292Z,2.33
2018-05-04T01:12:56.568Z,2.90
2018-05-04T01:15:23.754Z,2.70
2018-05-04T01:17:50.136Z,2.33
2018-05-04T01:20:16.442Z,2.77
2018-05-04T01:22:43.596Z,2.97
2018-05-04T01:25:10.905Z,3.17
2018-05-04T01:27:37.270Z,2.73
2018-05-04T01:30:03.603Z,2.20
2018-05-04T01:32:29.948Z,2.63
2018-05-04T01:34:56.302Z,2.47
2018-05-04T01:37:22.738Z,2.60
2018-05-04T01:39:49.058Z,3.00
2018-05-04T01:42:15.421Z,2.77
2018-05-04T01:44:41.839Z,2.83
2018-05-04T01:47:08.274Z,2.40
2018-05-04T01:49:34.709Z,2.30
2018-05-04T01:52:01.692Z,2.30
2018-05-04T01:54:28.801Z,2.33
2018-05-04T01:56:55.877Z,2.00
2018-05-04T01:59:22.223Z,2.60
2018-05-04T02:01:48.518Z,2.60
2018-05-04T02:04:15.015Z,2.70
2018-05-04T02:06:42.211Z,2.40
2018-05-04T02:09:08.915Z,3.10
2018-05-04T02:11:35.381Z,2.70
2018-05-04T02:14:02.477Z,3.27
2018-05-04T02:16:28.927Z,3.43
2018-05-04T02:18:55.284Z,2.90
2018-05-04T02:21:22.341Z,2.93
2018-05-04T02:23:49.395Z,2.03
2018-05-04T02:26:16.561Z,1.70
2018-05-04T02:28:42.873Z,2.30
2018-05-04T02:31:09.317Z,2.20
2018-05-04T02:33:35.711Z,3.20
2018-05-04T02:36:02.807Z,3.23
2018-05-04T02:38:29.161Z,2.90
2018-05-04T02:40:55.676Z,3.23
2018-05-04T02:43:22.824Z,3.27
2018-05-04T02:45:49.718Z,3.57
2018-05-04T02:48:16.326Z,4.07
2018-05-04T02:50:42.753Z,3.60
2018-05-04T02:53:09.180Z,4.03
2018-05-04T02:55:35.500Z,3.33
2018-05-04T02:58:02.523Z,3.10
2018-05-04T03:00:28.845Z,3.03
2018-05-04T03:02:55.200Z,3.07
2018-05-04T03:05:21.589Z,2.50
2018-05-04T03:07:47.987Z,2.47
2018-05-04T03:10:14.329Z,3.97
2018-05-04T03:12:41.989Z,4.13
2018-05-04T03:15:08.474Z,3.50
2018-05-04T03:17:35.676Z,3.40
2018-05-04T03:20:02.229Z,2.90
2018-05-04T03:22:28.576Z,2.57
2018-05-04T03:24:55.054Z,2.77
2018-05-04T03:27:22.121Z,2.13
2018-05-04T03:29:50.764Z,3.13
2018-05-04T03:32:18.396Z,3.90
2018-05-04T03:34:46.262Z,3.50
2018-05-04T03:37:12.679Z,3.87
2018-05-04T03:39:39.040Z,4.50
2018-05-04T03:42:05.372Z,4.73
2018-05-04T03:44:31.778Z,4.67
2018-05-04T03:46:58.145Z,4.47
2018-05-04T03:49:24.407Z,4.57
2018-05-04T03:51:50.788Z,4.73
2018-05-04T03:54:17.157Z,4.90
2018-05-04T03:56:44.324Z,4.43
2018-05-04T03:59:10.681Z,4.20
2018-05-04T04:01:37.751Z,2.57
2018-05-04T04:04:04.274Z,2.87
2018-05-04T04:06:30.695Z,2.77
2018-05-04T04:08:57.174Z,2.53
2018-05-04T04:11:23.485Z,3.37
2018-05-04T04:13:50.520Z,3.67
2018-05-04T04:16:17.692Z,4.33
2018-05-04T04:18:44.109Z,4.43
2018-05-04T04:21:10.551Z,4.60
2018-05-04T04:23:36.993Z,4.63
2018-05-04T04:26:03.519Z,4.63
2018-05-04T04:28:29.868Z,4.23
2018-05-04T04:30:56.199Z,4.37
2018-05-04T04:33:23.073Z,3.53
2018-05-04T04:35:51.485Z,3.30
2018-05-04T04:38:19.055Z,2.80
2018-05-04T04:40:46.127Z,2.80
2018-05-04T04:43:13.457Z,2.50
2018-05-04T04:45:39.954Z,2.27
2018-05-04T04:48:06.290Z,2.53
2018-05-04T04:50:32.591Z,2.43
2018-05-04T04:52:58.974Z,2.30
2018-05-04T04:55:25.419Z,2.47
2018-05-04T04:57:51.768Z,3.83
2018-05-04T05:00:18.927Z,3.00
2018-05-04T05:02:45.283Z,4.63
2018-05-04T05:05:11.597Z,5.53
2018-05-04T05:07:37.943Z,5.07
2018-05-04T05:10:04.365Z,4.43
2018-05-04T05:12:30.711Z,5.00
2018-05-04T05:14:57.030Z,5.83
2018-05-04T05:17:23.322Z,4.50
2018-05-04T05:19:50.525Z,5.60
2018-05-04T05:22:16.873Z,4.33
2018-05-04T05:24:43.223Z,5.50
2018-05-04T05:27:09.499Z,5.40
2018-05-04T05:29:35.794Z,5.77
2018-05-04T05:32:02.239Z,5.13
2018-05-04T05:34:29.302Z,5.37
2018-05-04T05:36:56.392Z,5.70
2018-05-04T05:39:22.742Z,5.17
2018-05-04T05:41:49.100Z,6.10
2018-05-04T05:44:17.720Z,5.87
2018-05-04T05:46:44.124Z,6.10
2018-05-04T05:49:10.480Z,6.33
2018-05-04T05:51:37.573Z,5.63
2018-05-04T05:54:04.039Z,6.13
2018-05-04T05:56:31.133Z,6.53
2018-05-04T05:58:58.798Z,6.63
2018-05-04T06:01:25.165Z,7.13
2018-05-04T06:03:52.558Z,6.90
2018-05-04T06:06:19.872Z,7.07
2018-05-04T06:08:47.049Z,7.87
2018-05-04T06:11:13.526Z,7.27
2018-05-04T06:13:39.950Z,7.47
2018-05-04T06:16:06.272Z,8.10
2018-05-04T06:18:32.607Z,7.83
2018-05-04T06:20:59.728Z,7.30
2018-05-04T06:23:26.829Z,8.00
2018-05-04T06:25:53.147Z,7.77
2018-05-04T06:28:19.498Z,7.37
2018-05-04T06:30:45.889Z,8.07
2018-05-04T06:33:12.321Z,7.30
2018-05-04T06:35:38.683Z,7.33
2018-05-04T06:38:05.066Z,7.13
2018-05-04T06:40:31.467Z,7.07
2018-05-04T06:42:58.571Z,6.17
2018-05-04T06:45:26.005Z,6.60
2018-05-04T06:47:52.374Z,6.40
2018-05-04T06:50:19.467Z,6.67
2018-05-04T06:52:45.791Z,6.10
2018-05-04T06:55:12.077Z,6.43
2018-05-04T06:57:39.228Z,5.97
2018-05-04T07:00:05.643Z,6.27
2018-05-04T07:02:32.773Z,6.27
2018-05-04T07:04:59.144Z,5.87
2018-05-04T07:07:25.503Z,6.27
2018-05-04T07:09:51.945Z,6.33
2018-05-04T07:12:18.321Z,6.50
2018-05-04T07:14:44.926Z,5.90
2018-05-04T07:17:11.283Z,5.60
2018-05-04T07:19:39.075Z,5.00
2018-05-04T07:22:06.232Z,5.83
2018-05-04T07:24:32.475Z,6.10
2018-05-04T07:26:59.595Z,6.17
2018-05-04T07:29:26.627Z,5.30
2018-05-04T07:31:52.917Z,6.07
2018-05-04T07:34:19.993Z,5.13
2018-05-04T07:36:46.521Z,4.67
2018-05-04T07:39:15.139Z,4.53
2018-05-04T07:41:41.595Z,4.67
2018-05-04T07:44:07.901Z,4.40
2018-05-04T07:46:34.279Z,4.50
2018-05-04T07:49:00.846Z,6.17
2018-05-04T07:51:27.260Z,5.33
2018-05-04T07:53:53.617Z,5.87
2018-05-04T07:56:31.109Z,5.93
2018-05-04T07:58:57.681Z,6.27
2018-05-04T08:01:24.043Z,7.13
2018-05-04T08:03:50.561Z,7.23
2018-05-04T08:06:16.909Z,7.57
2018-05-04T08:08:43.265Z,7.60
2018-05-04T08:11:09.693Z,7.00
2018-05-04T08:13:36.765Z,7.40
2018-05-04T08:16:03.064Z,7.93
2018-05-04T08:18:29.479Z,6.40
2018-05-04T08:20:55.949Z,7.97
2018-05-04T08:23:22.309Z,8.77
2018-05-04T08:25:48.895Z,9.57
2018-05-04T08:28:15.211Z,10.13
2018-05-04T08:30:42.265Z,9.73
2018-05-04T08:33:08.673Z,10.43
2018-05-04T08:35:35.084Z,9.60
2018-05-04T08:38:02.275Z,9.97
2018-05-04T08:40:29.451Z,8.30
2018-05-04T08:42:55.993Z,9.07
2018-05-04T08:45:22.247Z,9.27
2018-05-04T08:47:48.695Z,8.37
2018-05-04T08:50:15.029Z,7.60
2018-05-04T08:52:42.344Z,6.73
2018-05-04T08:55:08.776Z,7.00
2018-05-04T08:57:35.241Z,6.63
2018-05-04T09:00:01.740Z,6.40
2018-05-04T09:02:28.146Z,6.20
2018-05-04T09:04:55.295Z,6.43
2018-05-04T09:07:21.564Z,5.80
2018-05-04T09:09:48.481Z,5.63
2018-05-04T09:12:14.844Z,5.50
2018-05-04T09:14:42.006Z,6.20
2018-05-04T09:17:08.448Z,5.50
2018-05-04T09:19:34.986Z,6.00
2018-05-04T09:22:01.311Z,5.30
2018-05-04T09:24:27.580Z,5.30
2018-05-04T09:26:53.849Z,4.43
2018-05-04T09:29:21.638Z,4.67
2018-05-04T09:31:47.891Z,5.17
2018-05-04T09:34:14.302Z,5.85
2018-05-04T09:36:40.547Z,5.00
2018-05-04T09:39:06.914Z,4.73
2018-05-04T09:41:33.181Z,4.67
2018-05-04T09:44:04.460Z,4.43
2018-05-04T09:46:30.725Z,4.30
2018-05-04T09:48:57.100Z,4.13
2018-05-04T09:51:23.407Z,4.17
2018-05-04T09:53:49.680Z,4.10
2018-05-04T09:56:16.683Z,4.60
2018-05-04T09:58:43.602Z,4.20
2018-05-04T10:01:09.838Z,3.80
2018-05-04T10:03:36.204Z,4.70
2018-05-04T10:06:02.389Z,4.63
2018-05-04T10:08:28.728Z,3.50
2018-05-04T10:10:55.012Z,4.10
2018-05-04T10:13:22.077Z,4.30
2018-05-04T10:15:48.720Z,4.63
2018-05-04T10:18:15.972Z,3.87
2018-05-04T10:20:43.064Z,4.70
2018-05-04T10:23:10.288Z,4.37
2018-05-04T10:25:38.619Z,4.17
2018-05-04T10:28:04.978Z,4.63
2018-05-04T10:30:31.322Z,4.50
2018-05-04T10:32:57.703Z,4.05
2018-05-04T10:35:24.060Z,4.40
2018-05-04T10:37:50.485Z,4.40
2018-05-04T10:40:16.866Z,4.90
2018-05-04T10:42:43.220Z,4.67
2018-05-04T10:45:10.765Z,4.93
2018-05-04T10:47:37.069Z,3.90
2018-05-04T10:50:04.196Z,3.55
2018-05-04T10:52:30.583Z,4.03
2018-05-04T10:54:56.909Z,3.90
2018-05-04T10:57:23.274Z,3.95
2018-05-04T10:59:49.580Z,3.78
2018-05-04T11:02:15.888Z,3.87
2018-05-04T11:04:42.948Z,4.03
2018-05-04T11:07:09.270Z,3.95
2018-05-04T11:09:36.360Z,3.60
2018-05-04T11:12:02.658Z,4.35
2018-05-04T11:14:29.000Z,3.93
2018-05-04T11:16:55.293Z,4.30
2018-05-04T11:19:21.745Z,4.28
2018-05-04T11:21:48.763Z,4.22
2018-05-04T11:24:15.307Z,3.83
2018-05-04T11:26:42.388Z,4.35
2018-05-04T11:29:08.714Z,4.33
2018-05-04T11:31:35.011Z,4.40
2018-05-04T11:34:02.284Z,3.97
2018-05-04T11:36:29.172Z,4.07
2018-05-04T11:38:55.723Z,4.40
2018-05-04T11:41:22.148Z,4.05
2018-05-04T11:43:48.469Z,4.10
2018-05-04T11:46:14.835Z,3.67
2018-05-04T11:48:41.110Z,4.15
2018-05-04T11:51:07.542Z,4.03
2018-05-04T11:53:34.716Z,4.25
2018-05-04T11:56:01.085Z,3.90
2018-05-04T11:58:27.476Z,4.10
2018-05-04T12:00:53.844Z,4.32
2018-05-04T12:03:20.242Z,4.03
2018-05-04T12:05:46.791Z,4.33
2018-05-04T12:08:13.217Z,4.00
2018-05-04T12:10:39.648Z,4.20
2018-05-04T12:13:06.698Z,4.35
2018-05-04T12:15:33.901Z,3.78
2018-05-04T12:18:00.353Z,4.37
2018-05-04T12:20:27.450Z,4.25
2018-05-04T12:22:53.815Z,4.70
2018-05-04T12:25:20.095Z,4.30
2018-05-04T12:27:46.639Z,4.50
2018-05-04T12:30:13.174Z,4.95
2018-05-04T12:32:39.617Z,4.50
2018-05-04T12:35:06.009Z,4.22
2018-05-04T12:37:33.847Z,4.75
2018-05-04T12:40:00.196Z,4.78
2018-05-04T12:42:27.286Z,5.30
2018-05-04T12:44:53.761Z,5.22
2018-05-04T12:47:20.848Z,5.28
2018-05-04T12:49:47.148Z,5.35
2018-05-04T12:52:13.417Z,5.07
2018-05-04T12:54:40.161Z,5.78
2018-05-04T12:57:06.850Z,5.00
2018-05-04T13:02:19.471Z,5.75
2018-05-04T13:04:45.782Z,5.65
2018-05-04T13:07:12.895Z,5.80
2018-05-04T13:09:39.980Z,5.50
2018-05-04T13:12:07.118Z,5.05
2018-05-04T13:14:33.496Z,5.55
2018-05-04T13:16:59.786Z,5.45
2018-05-04T13:19:26.202Z,6.43
2018-05-04T13:21:52.566Z,5.90
2018-05-04T13:24:18.904Z,6.07
2018-05-04T13:26:45.293Z,5.72
2018-05-04T13:29:11.613Z,6.07
2018-05-04T13:31:38.213Z,6.15
2018-05-04T13:34:04.721Z,5.93
2018-05-04T13:36:37.026Z,6.05
2018-05-04T13:39:04.160Z,6.28
2018-05-04T13:41:30.607Z,5.90
2018-05-04T13:43:57.145Z,5.68
2018-05-04T13:46:23.588Z,6.10
2018-05-04T13:48:49.936Z,6.00
2018-05-04T13:51:16.251Z,6.53
2018-05-04T13:53:43.397Z,5.65
2018-05-04T13:56:10.245Z,6.32
2018-05-04T13:58:36.581Z,6.10
2018-05-04T14:01:02.960Z,6.75
2018-05-04T14:03:29.343Z,6.37
2018-05-04T14:05:55.773Z,5.93
2018-05-04T14:08:22.125Z,6.43
2018-05-04T14:10:48.411Z,5.90
2018-05-04T14:13:15.491Z,6.50
2018-05-04T14:15:50.001Z,6.37
2018-05-04T14:18:16.368Z,6.00
2018-05-04T14:20:42.924Z,5.90
2018-05-04T14:23:09.283Z,5.78
2018-05-04T14:25:36.425Z,6.57
2018-05-04T14:28:03.876Z,5.90
2018-05-04T14:30:30.253Z,6.20
2018-05-04T14:32:56.699Z,6.68
2018-05-04T14:35:23.844Z,6.10
2018-05-04T14:37:50.179Z,6.37
2018-05-04T14:40:16.743Z,5.78
2018-05-04T14:42:44.580Z,7.97
2018-05-04T14:45:10.918Z,6.28
2018-05-04T14:47:37.269Z,6.62
2018-05-04T14:50:03.582Z,6.18
2018-05-04T14:52:30.767Z,6.45
2018-05-04T14:54:57.074Z,6.72
2018-05-04T14:57:23.432Z,7.32
2018-05-04T14:59:49.934Z,7.95
2018-05-04T15:02:16.300Z,6.78
2018-05-04T15:04:43.652Z,7.05
2018-05-04T15:07:10.071Z,6.68
2018-05-04T15:09:36.468Z,6.05
2018-05-04T15:12:03.546Z,6.07
2018-05-04T15:14:29.879Z,6.70
2018-05-04T15:16:57.115Z,6.15
2018-05-04T15:19:23.444Z,6.20
2018-05-04T15:21:50.667Z,6.87
2018-05-04T15:24:17.048Z,6.55
2018-05-04T15:26:43.500Z,6.35
2018-05-04T15:29:09.861Z,6.43
2018-05-04T15:31:36.166Z,6.95
2018-05-04T15:34:02.581Z,6.07
2018-05-04T15:36:29.233Z,6.03
2018-05-04T15:38:55.651Z,6.68
2018-05-04T15:41:22.827Z,6.40
2018-05-04T15:43:49.114Z,6.05
2018-05-04T15:46:15.482Z,6.50
2018-05-04T15:48:48.024Z,6.28
2018-05-04T15:51:20.517Z,6.40
2018-05-04T15:53:46.932Z,6.03
2018-05-04T15:56:14.044Z,6.07
2018-05-04T15:58:40.385Z,6.40
2018-05-04T16:01:06.779Z,5.95
2018-05-04T16:03:33.193Z,5.78
2018-05-04T16:06:01.209Z,5.62
2018-05-04T16:08:27.673Z,5.95
2018-05-04T16:10:56.147Z,6.55
2018-05-04T16:13:22.493Z,6.07
2018-05-04T16:15:49.080Z,6.57
2018-05-04T16:18:16.275Z,6.15
2018-05-04T16:20:42.689Z,6.07
2018-05-04T16:23:09.025Z,5.95
2018-05-04T16:25:35.441Z,6.07
2018-05-04T16:28:01.883Z,6.93
2018-05-04T16:30:28.887Z,6.37
2018-05-04T16:32:57.386Z,6.68
2018-05-04T16:35:23.746Z,6.05
2018-05-04T16:37:50.179Z,6.07
2018-05-04T16:40:17.355Z,6.03
2018-05-04T16:42:43.661Z,6.40
2018-05-04T16:45:10.004Z,6.72
2018-05-04T16:47:42.306Z,5.45
2018-05-04T16:50:08.710Z,5.78
2018-05-04T16:52:35.090Z,5.82
2018-05-04T16:55:01.456Z,5.35
2018-05-04T16:57:27.890Z,5.30
2018-05-04T16:59:54.356Z,5.37
2018-05-04T17:02:20.955Z,5.20
2018-05-04T17:04:47.348Z,5.12
2018-05-04T17:07:14.555Z,5.47
2018-05-04T17:09:41.009Z,5.18
2018-05-04T17:12:07.324Z,4.68
2018-05-04T17:14:33.709Z,4.85
2018-05-04T17:17:00.164Z,5.07
2018-05-04T17:19:26.623Z,4.60
2018-05-04T17:21:53.054Z,4.45
2018-05-04T17:24:19.850Z,4.22
2018-05-04T17:26:46.219Z,3.95
2018-05-04T17:29:12.591Z,3.90
2018-05-04T17:31:39.016Z,3.65
2018-05-04T17:34:06.329Z,4.10
2018-05-04T17:36:33.871Z,4.20
2018-05-04T17:39:01.205Z,4.03
2018-05-04T17:41:27.537Z,3.92
2018-05-04T17:43:53.813Z,4.15
2018-05-04T17:46:20.892Z,3.95
2018-05-04T17:48:47.235Z,3.60
2018-05-04T17:51:13.565Z,4.15
2018-05-04T17:53:39.902Z,3.78
2018-05-04T17:56:06.294Z,3.87
2018-05-04T17:58:33.421Z,3.40
2018-05-04T18:00:59.727Z,3.92
2018-05-04T18:03:26.137Z,4.10
2018-05-04T18:05:52.594Z,3.55
2018-05-04T18:08:18.957Z,4.10
2018-05-04T18:10:46.057Z,3.55
2018-05-04T18:13:12.347Z,4.03
2018-05-04T18:15:38.917Z,4.10
2018-05-04T18:18:05.353Z,3.87
2018-05-04T18:20:32.446Z,3.58
2018-05-04T18:22:59.656Z,4.22
2018-05-04T18:25:26.040Z,3.22
2018-05-04T18:28:07.314Z,3.53
2018-05-04T18:30:33.706Z,3.67
2018-05-04T18:33:00.197Z,4.53
2018-05-04T18:35:26.530Z,3.97
2018-05-04T18:37:52.891Z,4.00
2018-05-04T18:40:20.039Z,3.87
2018-05-04T18:42:47.131Z,4.20
2018-05-04T18:45:13.478Z,3.53
2018-05-04T18:47:39.802Z,3.90
2018-05-04T18:50:06.172Z,3.62
2018-05-04T18:52:33.606Z,3.58
2018-05-04T18:55:00.018Z,3.85
2018-05-04T18:57:26.446Z,3.40
2018-05-04T18:59:52.738Z,3.90
2018-05-04T19:02:25.202Z,3.30
2018-05-04T19:04:51.709Z,3.72
2018-05-04T19:09:51.950Z,3.10
2018-05-04T19:12:18.336Z,3.42
2018-05-04T19:14:44.731Z,2.90
2018-05-04T19:17:11.237Z,2.97
2018-05-04T19:19:37.646Z,3.30
2018-05-04T19:22:04.736Z,2.87
2018-05-04T19:24:31.884Z,2.87
2018-05-04T19:26:59.603Z,2.70
2018-05-04T19:29:25.914Z,3.40
2018-05-04T19:31:52.340Z,3.13
2018-05-04T19:34:18.784Z,3.30
2018-05-04T19:36:45.142Z,3.13
2018-05-04T19:39:11.488Z,3.20
2018-05-04T19:41:38.592Z,3.70
2018-05-04T19:44:05.862Z,2.73
2018-05-04T19:46:32.250Z,2.77
2018-05-04T19:48:58.860Z,3.20
2018-05-04T19:51:25.957Z,3.30
2018-05-04T19:53:52.298Z,3.27
2018-05-04T19:56:18.803Z,3.17
2018-05-04T19:58:45.302Z,3.00
2018-05-04T20:01:11.676Z,3.00
2018-05-04T20:03:38.119Z,3.60
2018-05-04T20:06:05.459Z,2.73
2018-05-04T20:08:32.641Z,2.80
2018-05-04T20:10:58.977Z,3.07
2018-05-04T20:13:25.903Z,2.93
2018-05-04T20:15:52.253Z,3.20
2018-05-04T20:18:18.582Z,2.97
2018-05-04T20:20:45.812Z,3.30
2018-05-04T20:23:12.983Z,3.07
2018-05-04T20:25:39.880Z,3.33
2018-05-04T20:28:07.150Z,3.33
2018-05-04T20:30:33.599Z,2.97
2018-05-04T20:33:00.688Z,3.40
2018-05-04T20:35:27.047Z,3.40
2018-05-04T20:37:53.404Z,3.03
2018-05-04T20:40:19.767Z,3.40
2018-05-04T20:42:46.183Z,2.97
2018-05-04T20:45:12.562Z,3.30
2018-05-04T20:47:38.897Z,2.97
2018-05-04T20:50:05.481Z,2.83
2018-05-04T20:52:31.776Z,3.43
2018-05-04T20:54:58.056Z,3.33
2018-05-04T20:57:24.394Z,3.00
2018-05-04T20:59:50.754Z,3.30
2018-05-04T21:02:17.074Z,3.13
2018-05-04T21:04:43.531Z,3.13
2018-05-04T21:07:10.184Z,3.30
2018-05-04T21:09:36.757Z,3.20
2018-05-04T21:12:03.887Z,3.30
2018-05-04T21:14:31.009Z,3.40
2018-05-04T21:16:57.384Z,3.57
2018-05-04T21:19:23.795Z,3.27
2018-05-04T21:21:50.214Z,3.47
2018-05-04T21:24:16.622Z,3.60
2018-05-04T21:26:42.899Z,3.20
2018-05-04T21:29:09.307Z,3.30
2018-05-04T21:31:35.674Z,3.00
2018-05-04T21:34:02.155Z,3.23
2018-05-04T21:36:28.454Z,3.10
2018-05-04T21:38:54.838Z,3.70
2018-05-04T21:41:21.103Z,3.90
2018-05-04T21:43:48.276Z,3.30
2018-05-04T21:46:15.665Z,3.50
2018-05-04T21:48:42.063Z,3.53
2018-05-04T21:51:08.615Z,3.97
2018-05-04T21:53:34.935Z,3.40
2018-05-04T21:56:02.017Z,3.47
2018-05-04T21:58:28.419Z,3.53
2018-05-04T22:00:54.850Z,3.40
2018-05-04T22:03:21.237Z,3.53
2018-05-04T22:05:47.519Z,3.63
2018-05-04T22:08:13.857Z,3.67
2018-05-04T22:10:40.213Z,3.60
2018-05-04T22:13:06.537Z,3.47
2018-05-04T22:15:32.885Z,3.43
2018-05-04T22:17:59.296Z,3.60
2018-05-04T22:25:56.842Z,4.03
2018-05-04T22:28:23.196Z,3.70
2018-05-04T22:30:49.484Z,3.80
2018-05-04T22:33:15.849Z,3.93
2018-05-04T22:35:42.228Z,4.37
2018-05-04T22:38:08.702Z,4.20
2018-05-04T22:40:35.049Z,4.03
2018-05-04T22:43:02.194Z,4.27
2018-05-04T22:45:29.376Z,3.50
2018-05-04T22:47:56.385Z,3.77
2018-05-04T22:50:22.732Z,4.87
2018-05-04T22:52:49.792Z,3.97
2018-05-04T22:55:16.791Z,3.87
2018-05-04T22:57:43.162Z,3.97
2018-05-04T23:00:10.229Z,4.27
2018-05-04T23:02:36.621Z,3.90
2018-05-04T23:05:02.935Z,3.97
2018-05-04T23:07:29.313Z,4.67
2018-05-04T23:09:55.825Z,3.60
2018-05-04T23:12:22.901Z,4.50
2018-05-04T23:14:49.294Z,4.83
2018-05-04T23:17:15.659Z,4.07
2018-05-04T23:19:42.007Z,4.33
2018-05-04T23:22:09.095Z,4.10
2018-05-04T23:24:35.446Z,4.47
2018-05-04T23:27:02.493Z,4.20
2018-05-04T23:29:28.807Z,4.87
2018-05-04T23:31:55.167Z,4.60
2018-05-04T23:34:21.479Z,3.97
2018-05-04T23:36:47.765Z,4.00
2018-05-04T23:39:14.113Z,3.80
2018-05-04T23:41:40.445Z,4.30
2018-05-04T23:44:06.767Z,4.57
2018-05-04T23:46:33.191Z,3.97
2018-05-04T23:49:00.337Z,3.97
2018-05-04T23:51:26.647Z,4.87
2018-05-04T23:53:53.829Z,4.17
2018-05-04T23:56:20.149Z,4.53
2018-05-04T23:58:47.466Z,4.40
